createdAt,value
2018-04-23T00:00:49.230Z,80.60
2018-04-23T00:03:17.424Z,81.00
2018-04-23T00:05:46.403Z,81.10
2018-04-23T00:08:14.631Z,81.00
2018-04-23T00:10:43.592Z,80.50
2018-04-23T00:13:11.794Z,80.50
2018-04-23T00:15:39.973Z,80.00
2018-04-23T00:18:08.942Z,80.60
2018-04-23T00:20:37.175Z,80.60
2018-04-23T00:23:05.464Z,80.80
2018-04-23T00:25:33.584Z,80.30
2018-04-23T00:28:02.571Z,80.80
2018-04-23T00:30:36.695Z,80.10
2018-04-23T00:33:05.692Z,80.70
2018-04-23T00:35:34.626Z,81.30
2018-04-23T00:38:02.831Z,81.20
2018-04-23T00:40:31.052Z,81.80
2018-04-23T00:42:59.260Z,81.80
2018-04-23T00:45:27.437Z,81.30
2018-04-23T00:47:55.639Z,81.70
2018-04-23T00:50:24.603Z,81.80
2018-04-23T00:53:04.641Z,81.70
2018-04-23T00:55:32.819Z,81.50
2018-04-23T00:58:01.023Z,81.90
2018-04-23T01:00:29.212Z,81.80
2018-04-23T01:02:57.375Z,82.70
2018-04-23T01:05:25.569Z,81.20
2018-04-23T01:07:53.727Z,82.60
2018-04-23T01:10:21.931Z,83.40
2018-04-23T01:12:50.855Z,81.90
2018-04-23T01:15:19.031Z,82.40
2018-04-23T01:17:47.179Z,82.60
2018-04-23T01:20:15.451Z,83.50
2018-04-23T01:22:44.386Z,82.50
2018-04-23T01:25:12.558Z,82.50
2018-04-23T01:27:40.722Z,82.20
2018-04-23T01:30:09.751Z,82.90
2018-04-23T01:32:37.935Z,82.90
2018-04-23T01:35:06.119Z,82.30
2018-04-23T01:37:34.271Z,82.80
2018-04-23T01:40:02.583Z,83.20
2018-04-23T01:42:31.500Z,83.10
2018-04-23T01:44:59.680Z,83.10
2018-04-23T01:47:27.831Z,82.60
2018-04-23T01:49:56.871Z,83.70
2018-04-23T01:52:25.023Z,83.70
2018-04-23T01:54:53.218Z,83.60
2018-04-23T01:57:21.374Z,82.60
2018-04-23T01:59:50.487Z,84.00
2018-04-23T02:02:18.635Z,83.70
2018-04-23T02:04:46.815Z,83.90
2018-04-23T02:07:14.991Z,84.00
2018-04-23T02:09:43.440Z,84.30
2018-04-23T02:12:12.357Z,83.90
2018-04-23T02:14:40.531Z,83.90
2018-04-23T02:17:08.700Z,84.40
2018-04-23T02:19:37.135Z,83.60
2018-04-23T02:22:05.372Z,83.90
2018-04-23T02:24:34.260Z,83.20
2018-04-23T02:27:02.464Z,83.20
2018-04-23T02:29:30.646Z,83.90
2018-04-23T02:31:58.827Z,84.10
2018-04-23T02:34:26.990Z,84.10
2018-04-23T02:36:55.187Z,83.60
2018-04-23T02:39:24.135Z,83.80
2018-04-23T02:41:52.318Z,84.30
2018-04-23T02:44:20.477Z,84.70
2018-04-23T02:46:48.686Z,84.30
2018-04-23T02:49:16.852Z,83.90
2018-04-23T02:51:45.035Z,84.30
2018-04-23T02:54:13.224Z,84.40
2018-04-23T02:56:41.431Z,84.50
2018-04-23T02:59:09.759Z,85.10
2018-04-23T03:01:37.958Z,84.50
2018-04-23T03:04:06.127Z,84.70
2018-04-23T03:06:35.083Z,84.90
2018-04-23T03:09:03.279Z,84.90
2018-04-23T03:11:31.471Z,85.30
2018-04-23T03:14:00.415Z,85.30
2018-04-23T03:16:28.603Z,85.20
2018-04-23T03:18:56.763Z,85.30
2018-04-23T03:21:24.971Z,85.50
2018-04-23T03:23:53.135Z,85.00
2018-04-23T03:26:21.323Z,86.10
2018-04-23T03:28:49.576Z,84.50
2018-04-23T03:31:17.764Z,86.00
2018-04-23T03:33:45.935Z,86.00
2018-04-23T03:36:14.115Z,87.00
2018-04-23T03:38:44.219Z,86.70
2018-04-23T03:41:12.368Z,85.20
2018-04-23T03:43:40.560Z,85.30
2018-04-23T03:46:08.717Z,85.60
2018-04-23T03:48:36.898Z,86.10
2018-04-23T03:51:05.051Z,86.10
2018-04-23T03:53:33.231Z,86.10
2018-04-23T03:56:01.391Z,86.10
2018-04-23T03:58:29.575Z,86.10
2018-04-23T04:00:57.734Z,86.10
2018-04-23T04:03:25.915Z,86.00
2018-04-23T04:05:54.074Z,85.70
2018-04-23T04:08:22.320Z,85.90
2018-04-23T04:10:50.827Z,85.70
2018-04-23T04:13:31.626Z,85.90
2018-04-23T04:16:11.788Z,85.90
2018-04-23T04:18:45.915Z,86.80
2018-04-23T04:21:14.115Z,86.60
2018-04-23T04:23:42.293Z,87.40
2018-04-23T04:26:10.459Z,87.00
2018-04-23T04:28:40.456Z,86.40
2018-04-23T04:31:09.579Z,87.00
2018-04-23T04:33:37.757Z,86.60
2018-04-23T04:36:06.692Z,86.70
2018-04-23T04:38:34.903Z,86.60
2018-04-23T04:41:03.064Z,87.70
2018-04-23T04:43:31.239Z,87.40
2018-04-23T04:45:59.391Z,88.10
2018-04-23T04:48:27.635Z,87.50
2018-04-23T04:50:56.559Z,86.40
2018-04-23T04:53:24.763Z,86.40
2018-04-23T04:55:52.947Z,86.00
2018-04-23T04:58:21.183Z,86.40
2018-04-23T05:00:49.339Z,86.50
2018-04-23T05:03:18.288Z,85.90
2018-04-23T05:05:46.486Z,85.90
2018-04-23T05:08:15.537Z,87.20
2018-04-23T05:10:43.723Z,86.40
2018-04-23T05:13:11.885Z,86.60
2018-04-23T05:15:40.077Z,86.10
2018-04-23T05:18:09.027Z,87.00
2018-04-23T05:20:37.227Z,86.10
2018-04-23T05:23:05.390Z,85.30
2018-04-23T05:25:33.584Z,85.30
2018-04-23T05:28:02.567Z,84.90
2018-04-23T05:30:30.763Z,84.90
2018-04-23T05:32:58.924Z,84.60
2018-04-23T05:35:27.104Z,84.10
2018-04-23T05:37:56.104Z,83.10
2018-04-23T05:40:24.283Z,83.10
2018-04-23T05:42:52.553Z,83.20
2018-04-23T05:45:20.731Z,83.10
2018-04-23T05:47:49.443Z,82.80
2018-04-23T05:50:18.400Z,82.20
2018-04-23T05:52:46.566Z,82.20
2018-04-23T05:55:14.744Z,81.80
2018-04-23T05:57:43.711Z,82.00
2018-04-23T06:00:11.900Z,81.10
2018-04-23T06:02:40.059Z,80.40
2018-04-23T06:05:08.247Z,80.00
2018-04-23T06:07:37.235Z,80.40
2018-04-23T06:10:05.419Z,80.40
2018-04-23T06:12:33.587Z,80.30
2018-04-23T06:15:01.763Z,80.20
2018-04-23T06:17:30.740Z,83.10
2018-04-23T06:19:58.933Z,82.20
2018-04-23T06:22:27.130Z,83.40
2018-04-23T06:24:55.288Z,83.30
2018-04-23T06:27:24.291Z,83.90
2018-04-23T06:29:52.451Z,83.90
2018-04-23T06:32:20.655Z,83.60
2018-04-23T06:34:48.815Z,83.50
2018-04-23T06:37:17.019Z,84.00
2018-04-23T06:39:45.940Z,83.50
2018-04-23T06:42:14.127Z,83.50
2018-04-23T06:44:42.312Z,82.80
2018-04-23T06:47:10.500Z,83.10
2018-04-23T06:49:38.651Z,83.00
2018-04-23T06:52:06.856Z,81.30
2018-04-23T06:54:35.034Z,80.00
2018-04-23T06:57:04.276Z,73.10
2018-04-23T06:59:33.223Z,72.00
2018-04-23T07:02:01.399Z,71.90
2018-04-23T07:04:29.553Z,71.10
2018-04-23T07:06:58.547Z,71.20
2018-04-23T07:09:26.724Z,71.20
2018-04-23T07:11:54.911Z,70.50
2018-04-23T07:14:23.079Z,68.90
2018-04-23T07:16:52.892Z,69.60
2018-04-23T07:19:21.074Z,68.80
2018-04-23T07:21:49.244Z,66.80
2018-04-23T07:24:17.399Z,68.20
2018-04-23T07:26:45.594Z,66.70
2018-04-23T07:29:13.784Z,65.10
2018-04-23T07:31:41.962Z,64.40
2018-04-23T07:34:10.124Z,64.60
2018-04-23T07:36:38.307Z,63.90
2018-04-23T07:39:06.467Z,63.30
2018-04-23T07:41:34.648Z,58.20
2018-04-23T07:44:02.824Z,56.50
2018-04-23T07:46:30.991Z,57.20
2018-04-23T07:48:59.175Z,58.00
2018-04-23T07:51:27.347Z,58.20
2018-04-23T07:53:55.516Z,58.80
2018-04-23T07:56:23.669Z,57.20
2018-04-23T07:58:51.864Z,58.10
2018-04-23T08:01:20.827Z,56.20
2018-04-23T08:03:49.012Z,56.10
2018-04-23T08:06:17.167Z,56.00
2018-04-23T08:08:45.351Z,55.90
2018-04-23T08:11:13.519Z,55.20
2018-04-23T08:13:41.696Z,54.70
2018-04-23T08:16:10.665Z,54.30
2018-04-23T08:18:38.848Z,54.30
2018-04-23T08:21:07.003Z,51.80
2018-04-23T08:23:35.192Z,54.20
2018-04-23T08:26:03.391Z,53.10
2018-04-23T08:28:32.337Z,52.20
2018-04-23T08:31:00.500Z,52.20
2018-04-23T08:33:29.439Z,50.20
2018-04-23T08:35:57.599Z,50.10
2018-04-23T08:38:25.771Z,51.50
2018-04-23T08:40:53.935Z,51.60
2018-04-23T08:43:22.120Z,51.60
2018-04-23T08:45:50.331Z,51.10
2018-04-23T08:48:18.525Z,49.30
2018-04-23T08:50:46.679Z,49.90
2018-04-23T08:53:14.862Z,49.60
2018-04-23T08:55:43.078Z,51.40
2018-04-23T08:58:11.975Z,50.90
2018-04-23T09:00:40.159Z,50.90
2018-04-23T09:03:08.335Z,51.30
2018-04-23T09:05:37.327Z,50.70
2018-04-23T09:08:05.483Z,50.70
2018-04-23T09:10:33.671Z,51.50
2018-04-23T09:13:01.835Z,51.90
2018-04-23T09:15:30.843Z,51.30
2018-04-23T09:17:58.996Z,51.20
2018-04-23T09:20:27.171Z,49.40
2018-04-23T09:22:55.329Z,48.30
2018-04-23T09:25:23.577Z,47.10
2018-04-23T09:27:51.732Z,48.10
2018-04-23T09:30:19.908Z,46.80
2018-04-23T09:32:48.080Z,47.90
2018-04-23T09:35:16.283Z,48.60
2018-04-23T09:37:44.434Z,47.80
2018-04-23T09:40:12.619Z,49.40
2018-04-23T09:42:40.771Z,47.80
2018-04-23T09:45:08.970Z,47.20
2018-04-23T09:47:37.119Z,45.80
2018-04-23T09:50:05.323Z,47.10
2018-04-23T09:52:34.276Z,46.30
2018-04-23T09:55:03.391Z,46.30
2018-04-23T09:57:31.551Z,46.20
2018-04-23T09:59:59.734Z,44.40
2018-04-23T10:02:27.903Z,43.50
2018-04-23T10:04:56.075Z,43.10
2018-04-23T10:07:24.240Z,42.60
2018-04-23T10:09:52.423Z,42.70
2018-04-23T10:12:20.571Z,44.30
2018-04-23T10:14:48.763Z,42.50
2018-04-23T10:17:16.935Z,41.30
2018-04-23T10:19:45.131Z,40.80
2018-04-23T10:22:13.298Z,39.60
2018-04-23T10:24:41.457Z,40.30
2018-04-23T10:27:09.633Z,41.20
2018-04-23T10:29:37.787Z,42.40
2018-04-23T10:32:05.989Z,42.80
2018-04-23T10:34:34.168Z,42.50
2018-04-23T10:37:02.344Z,41.00
2018-04-23T10:39:30.495Z,41.40
2018-04-23T10:41:58.679Z,41.30
2018-04-23T10:44:26.971Z,41.80
2018-04-23T10:46:55.192Z,41.80
2018-04-23T10:49:23.342Z,43.60
2018-04-23T10:51:52.279Z,39.10
2018-04-23T10:54:20.476Z,39.00
2018-04-23T10:56:48.679Z,39.40
2018-04-23T10:59:16.831Z,39.30
2018-04-23T11:01:45.268Z,37.80
2018-04-23T11:04:13.432Z,39.60
2018-04-23T11:06:41.647Z,38.20
2018-04-23T11:09:09.791Z,38.30
2018-04-23T11:11:37.967Z,37.70
2018-04-23T11:14:07.056Z,37.20
2018-04-23T11:16:35.292Z,37.10
2018-04-23T11:19:03.410Z,39.40
2018-04-23T11:21:31.587Z,39.70
2018-04-23T11:23:59.764Z,38.10
2018-04-23T11:26:27.986Z,38.00
2018-04-23T11:28:56.105Z,39.00
2018-04-23T11:31:24.282Z,37.20
2018-04-23T11:33:52.480Z,38.30
2018-04-23T11:36:20.676Z,38.70
2018-04-23T11:38:49.623Z,36.50
2018-04-23T11:41:17.802Z,36.50
2018-04-23T11:43:45.987Z,37.10
2018-04-23T11:46:14.141Z,36.20
2018-04-23T11:48:42.315Z,35.80
2018-04-23T11:51:10.514Z,36.40
2018-04-23T11:53:38.703Z,38.20
2018-04-23T11:56:06.888Z,37.60
2018-04-23T11:58:35.827Z,35.30
2018-04-23T12:01:03.984Z,35.30
2018-04-23T12:03:32.164Z,37.90
2018-04-23T12:06:00.320Z,37.50
2018-04-23T12:08:28.499Z,37.40
2018-04-23T12:10:56.671Z,37.30
2018-04-23T12:13:24.902Z,38.20
2018-04-23T12:15:53.059Z,38.70
2018-04-23T12:18:21.275Z,40.10
2018-04-23T12:20:50.195Z,44.50
2018-04-23T12:23:18.387Z,44.50
2018-04-23T12:25:46.548Z,43.80
2018-04-23T12:28:14.720Z,46.00
2018-04-23T12:30:42.871Z,43.40
2018-04-23T12:33:11.059Z,43.90
2018-04-23T12:35:39.215Z,43.60
2018-04-23T12:38:07.389Z,43.40
2018-04-23T12:40:35.544Z,45.00
2018-04-23T12:43:04.484Z,47.20
2018-04-23T12:45:32.639Z,46.90
2018-04-23T12:48:00.811Z,45.40
2018-04-23T12:50:28.975Z,46.30
2018-04-23T12:52:57.178Z,46.50
2018-04-23T12:55:25.340Z,45.50
2018-04-23T12:57:53.519Z,48.00
2018-04-23T13:00:21.695Z,46.90
2018-04-23T13:02:49.908Z,48.00
2018-04-23T13:05:18.873Z,49.00
2018-04-23T13:07:47.028Z,49.00
2018-04-23T13:10:15.215Z,49.80
2018-04-23T13:12:43.504Z,48.50
2018-04-23T13:15:11.676Z,48.50
2018-04-23T13:17:39.831Z,47.60
2018-04-23T13:20:08.015Z,49.50
2018-04-23T13:22:36.179Z,48.20
2018-04-23T13:25:04.358Z,47.60
2018-04-23T13:27:32.539Z,45.60
2018-04-23T13:30:00.731Z,46.40
2018-04-23T13:32:29.778Z,46.50
2018-04-23T13:34:57.943Z,46.50
2018-04-23T13:37:26.097Z,46.60
2018-04-23T13:39:55.055Z,46.90
2018-04-23T13:42:23.260Z,46.90
2018-04-23T13:44:51.413Z,47.20
2018-04-23T13:47:19.583Z,47.20
2018-04-23T13:49:47.763Z,45.90
2018-04-23T13:52:15.934Z,46.00
2018-04-23T13:54:44.159Z,46.10
2018-04-23T13:57:12.321Z,46.50
2018-04-23T13:59:41.267Z,48.70
2018-04-23T14:02:09.435Z,48.70
2018-04-23T14:04:37.650Z,46.70
2018-04-23T14:07:06.551Z,47.90
2018-04-23T14:09:34.724Z,47.80
2018-04-23T14:12:02.908Z,47.10
2018-04-23T14:14:31.080Z,49.10
2018-04-23T14:16:59.240Z,49.70
2018-04-23T14:19:27.483Z,50.10
2018-04-23T14:21:55.711Z,51.80
2018-04-23T14:24:23.875Z,51.40
2018-04-23T14:26:52.071Z,52.60
2018-04-23T14:29:20.232Z,52.50
2018-04-23T14:31:48.432Z,51.90
2018-04-23T14:34:16.583Z,52.90
2018-04-23T14:36:44.771Z,52.70
2018-04-23T14:39:12.962Z,53.10
2018-04-23T14:41:41.184Z,52.10
2018-04-23T14:44:09.343Z,52.60
2018-04-23T14:46:38.287Z,53.40
2018-04-23T14:49:06.673Z,53.90
2018-04-23T14:51:35.667Z,52.30
2018-04-23T14:54:03.827Z,52.30
2018-04-23T14:56:32.027Z,52.30
2018-04-23T14:59:00.211Z,51.50
2018-04-23T15:01:28.464Z,53.30
2018-04-23T15:03:56.662Z,53.30
2018-04-23T15:06:24.871Z,52.40
2018-04-23T15:08:53.035Z,52.60
2018-04-23T15:11:21.951Z,52.40
2018-04-23T15:13:50.128Z,53.00
2018-04-23T15:16:18.335Z,53.20
2018-04-23T15:18:47.278Z,53.40
2018-04-23T15:21:15.499Z,53.30
2018-04-23T15:23:44.452Z,54.30
2018-04-23T15:26:12.979Z,54.30
2018-04-23T15:28:41.927Z,53.90
2018-04-23T15:31:10.166Z,53.90
2018-04-23T15:33:38.342Z,54.00
2018-04-23T15:36:06.560Z,53.80
2018-04-23T15:38:34.731Z,53.60
2018-04-23T15:41:03.732Z,54.10
2018-04-23T15:43:31.927Z,54.10
2018-04-23T15:46:00.873Z,54.60
2018-04-23T15:48:29.070Z,54.60
2018-04-23T15:50:57.275Z,53.30
2018-04-23T15:53:25.523Z,53.30
2018-04-23T15:55:53.695Z,53.30
2018-04-23T15:58:21.913Z,53.50
2018-04-23T16:00:50.123Z,53.90
2018-04-23T16:03:18.323Z,52.90
2018-04-23T16:05:46.520Z,55.00
2018-04-23T16:08:15.047Z,54.80
2018-04-23T16:10:44.775Z,54.30
2018-04-23T16:13:12.976Z,54.70
2018-04-23T16:15:41.191Z,55.30
2018-04-23T16:18:10.852Z,55.60
2018-04-23T16:20:39.046Z,55.50
2018-04-23T16:23:08.005Z,55.60
2018-04-23T16:25:36.193Z,55.60
2018-04-23T16:28:04.392Z,55.90
2018-04-23T16:30:32.676Z,56.30
2018-04-23T16:33:00.879Z,56.40
2018-04-23T16:35:29.107Z,56.60
2018-04-23T16:37:57.325Z,57.00
2018-04-23T16:40:25.507Z,57.10
2018-04-23T16:42:53.723Z,56.90
2018-04-23T16:45:22.797Z,57.90
2018-04-23T16:47:51.395Z,57.80
2018-04-23T16:50:21.201Z,58.10
2018-04-23T16:52:49.542Z,58.10
2018-04-23T16:55:17.776Z,57.10
2018-04-23T16:57:45.955Z,56.10
2018-04-23T17:00:14.918Z,55.50
2018-04-23T17:02:43.148Z,55.50
2018-04-23T17:05:11.299Z,55.40
2018-04-23T17:07:40.242Z,55.50
2018-04-23T17:10:09.242Z,55.50
2018-04-23T17:12:37.435Z,55.50
2018-04-23T17:15:06.428Z,56.10
2018-04-23T17:17:35.385Z,56.60
2018-04-23T17:20:05.047Z,56.50
2018-04-23T17:22:33.318Z,56.90
2018-04-23T17:25:02.475Z,57.20
2018-04-23T17:27:30.667Z,57.20
2018-04-23T17:29:59.736Z,57.50
2018-04-23T17:32:27.923Z,57.40
2018-04-23T17:34:56.124Z,57.00
2018-04-23T17:37:25.101Z,57.40
2018-04-23T17:39:53.291Z,57.40
2018-04-23T17:42:22.242Z,57.70
2018-04-23T17:44:50.450Z,57.70
2018-04-23T17:47:19.538Z,57.90
2018-04-23T17:49:48.841Z,57.80
2018-04-23T17:52:17.412Z,57.90
2018-04-23T17:54:45.611Z,57.80
2018-04-23T17:57:14.558Z,57.70
2018-04-23T17:59:42.857Z,57.70
2018-04-23T18:02:14.882Z,58.00
2018-04-23T18:04:43.099Z,58.00
2018-04-23T18:07:12.055Z,59.30
2018-04-23T18:09:40.339Z,59.10
2018-04-23T18:12:08.523Z,59.90
2018-04-23T18:14:38.260Z,60.60
2018-04-23T18:17:06.457Z,60.60
2018-04-23T18:19:35.098Z,60.70
2018-04-23T18:22:04.191Z,60.30
2018-04-23T18:24:33.284Z,63.50
2018-04-23T18:27:02.250Z,64.00
2018-04-23T18:29:30.543Z,64.00
2018-04-23T18:31:58.795Z,66.20
2018-04-23T18:34:26.991Z,68.20
2018-04-23T18:36:55.967Z,71.80
2018-04-23T18:39:24.371Z,71.80
2018-04-23T18:41:53.822Z,73.70
2018-04-23T18:44:23.276Z,73.60
2018-04-23T18:46:52.267Z,76.00
2018-04-23T18:49:20.507Z,76.00
2018-04-23T18:51:48.723Z,77.20
2018-04-23T18:54:17.710Z,80.00
2018-04-23T18:56:46.702Z,80.90
2018-04-23T18:59:14.928Z,80.10
2018-04-23T19:01:43.127Z,81.50
2018-04-23T19:04:11.340Z,81.90
2018-04-23T19:06:40.608Z,82.70
2018-04-23T19:09:08.862Z,82.70
2018-04-23T19:11:37.059Z,83.60
2018-04-23T19:14:05.643Z,82.80
2018-04-23T19:16:33.851Z,83.40
2018-04-23T19:19:02.180Z,84.50
2018-04-23T19:21:30.480Z,86.00
2018-04-23T19:23:59.432Z,86.90
2018-04-23T19:26:27.696Z,86.30
2018-04-23T19:28:55.988Z,86.40
2018-04-23T19:31:24.199Z,87.80
2018-04-23T19:33:53.359Z,86.40
2018-04-23T19:36:21.567Z,86.40
2018-04-23T19:38:50.942Z,87.70
2018-04-23T19:41:19.148Z,87.70
2018-04-23T19:43:48.918Z,86.80
2018-04-23T19:46:17.140Z,86.80
2018-04-23T19:48:46.313Z,86.30
2018-04-23T19:51:14.553Z,86.40
2018-04-23T19:53:42.735Z,85.70
2018-04-23T19:56:10.979Z,86.40
2018-04-23T19:58:40.739Z,84.90
2018-04-23T20:01:08.936Z,84.90
2018-04-23T20:03:37.156Z,81.70
2018-04-23T20:06:05.938Z,81.00
2018-04-23T20:08:34.243Z,83.00
2018-04-23T20:11:02.419Z,84.20
2018-04-23T20:13:30.647Z,84.90
2018-04-23T20:15:59.589Z,85.50
2018-04-23T20:18:27.871Z,85.50
2018-04-23T20:20:56.066Z,85.30
2018-04-23T20:23:25.147Z,86.20
2018-04-23T20:25:53.347Z,86.20
2018-04-23T20:28:21.691Z,86.90
2018-04-23T20:30:49.871Z,87.20
2018-04-23T20:33:18.154Z,87.40
2018-04-23T20:35:47.030Z,85.50
2018-04-23T20:38:16.049Z,87.10
2018-04-23T20:40:44.231Z,87.10
2018-04-23T20:43:13.219Z,89.20
2018-04-23T20:45:42.375Z,89.80
2018-04-23T20:48:11.599Z,89.60
2018-04-23T20:50:39.791Z,89.60
2018-04-23T20:53:09.512Z,89.30
2018-04-23T20:55:38.456Z,90.00
2018-04-23T20:58:06.739Z,89.30
2018-04-23T21:00:34.915Z,89.40
2018-04-23T21:03:04.120Z,89.90
2018-04-23T21:05:32.296Z,89.90
2018-04-23T21:08:00.572Z,89.00
2018-04-23T21:10:28.763Z,89.70
2018-04-23T21:12:57.730Z,89.60
2018-04-23T21:15:25.927Z,89.50
2018-04-23T21:17:54.130Z,90.10
2018-04-23T21:20:23.098Z,90.00
2018-04-23T21:22:51.380Z,90.00
2018-04-23T21:25:19.575Z,90.00
2018-04-23T21:27:48.606Z,89.70
2018-04-23T21:30:17.499Z,89.90
2018-04-23T21:32:45.706Z,89.60
2018-04-23T21:35:13.890Z,89.70
2018-04-23T21:37:42.153Z,90.00
2018-04-23T21:40:10.306Z,90.20
2018-04-23T21:42:38.504Z,90.10
2018-04-23T21:45:06.729Z,90.20
2018-04-23T21:47:34.916Z,90.10
2018-04-23T21:50:03.099Z,90.00
2018-04-23T21:52:31.254Z,90.00
2018-04-23T21:54:59.435Z,90.00
2018-04-23T21:57:27.627Z,90.30
2018-04-23T21:59:55.823Z,90.30
2018-04-23T22:02:23.979Z,90.50
2018-04-23T22:04:52.163Z,90.40
2018-04-23T22:07:21.128Z,90.50
2018-04-23T22:09:49.303Z,90.50
2018-04-23T22:12:17.472Z,90.50
2018-04-23T22:14:46.410Z,90.40
2018-04-23T22:17:15.359Z,90.20
2018-04-23T22:19:43.563Z,90.40
2018-04-23T22:22:11.711Z,90.40
2018-04-23T22:24:39.891Z,90.70
2018-04-23T22:27:08.871Z,90.50
2018-04-23T22:29:37.049Z,90.40
2018-04-23T22:32:05.284Z,90.50
2018-04-23T22:34:33.393Z,90.50
2018-04-23T22:37:01.567Z,90.50
2018-04-23T22:39:29.739Z,90.80
2018-04-23T22:41:57.897Z,90.70
2018-04-23T22:44:26.843Z,90.60
2018-04-23T22:46:55.798Z,90.70
2018-04-23T22:49:23.990Z,90.50
2018-04-23T22:51:52.138Z,90.70
2018-04-23T22:54:21.080Z,90.90
2018-04-23T22:56:50.142Z,90.90
2018-04-23T22:59:18.327Z,90.70
2018-04-23T23:01:46.487Z,90.50
2018-04-23T23:04:14.667Z,90.50
2018-04-23T23:06:42.883Z,90.10
2018-04-23T23:09:11.078Z,89.60
2018-04-23T23:11:39.235Z,89.00
2018-04-23T23:14:07.393Z,89.10
2018-04-23T23:16:35.646Z,90.00
2018-04-23T23:19:03.819Z,89.90
2018-04-23T23:21:31.995Z,90.40
2018-04-23T23:24:00.152Z,90.50
2018-04-23T23:26:30.112Z,90.70
2018-04-23T23:28:58.270Z,90.70
2018-04-23T23:31:26.443Z,90.80
2018-04-23T23:33:54.604Z,90.90
2018-04-23T23:36:23.603Z,91.20
2018-04-23T23:38:51.778Z,90.90
2018-04-23T23:41:19.955Z,90.90
2018-04-23T23:43:48.107Z,91.10
2018-04-23T23:46:17.119Z,91.20
2018-04-23T23:48:45.280Z,91.20
2018-04-23T23:51:13.465Z,91.30
2018-04-23T23:53:41.620Z,91.00
2018-04-23T23:56:10.738Z,91.00
2018-04-23T23:58:38.903Z,91.00
